createdAt,value
2017-04-23T00:00:47.824Z,1013.41
2017-04-23T00:01:57.766Z,1013.35
2017-04-23T00:03:08.017Z,1013.34
2017-04-23T00:04:17.312Z,1013.37
2017-04-23T00:05:26.925Z,1013.43
2017-04-23T00:06:37.162Z,1013.43
2017-04-23T00:07:46.773Z,1013.38
2017-04-23T00:08:57.005Z,1013.46
2017-04-23T00:10:06.633Z,1013.49
2017-04-23T00:11:16.563Z,1013.37
2017-04-23T00:12:26.801Z,1013.33
2017-04-23T00:13:37.046Z,1013.36
2017-04-23T00:14:46.650Z,1013.36
2017-04-23T00:15:56.889Z,1013.39
2017-04-23T00:17:07.133Z,1013.42
2017-04-23T00:18:17.062Z,1013.46
2017-04-23T00:19:26.989Z,1013.48
2017-04-23T00:20:37.224Z,1013.48
2017-04-23T00:21:47.458Z,1013.42
2017-04-23T00:22:57.694Z,1013.47
2017-04-23T00:24:07.310Z,1013.46
2017-04-23T00:25:17.234Z,1013.48
2017-04-23T00:26:27.495Z,1013.45
2017-04-23T00:27:37.733Z,1013.53
2017-04-23T00:28:47.968Z,1013.41
2017-04-23T00:29:58.209Z,1013.44
2017-04-23T00:31:07.818Z,1013.47
2017-04-23T00:32:18.056Z,1013.43
2017-04-23T00:33:27.976Z,1013.52
2017-04-23T00:34:37.581Z,1013.57
2017-04-23T00:35:47.823Z,1013.51
2017-04-23T00:36:57.742Z,1013.44
2017-04-23T00:38:07.668Z,1013.46
2017-04-23T00:39:17.599Z,1013.44
2017-04-23T00:40:27.837Z,1013.45
2017-04-23T00:41:38.072Z,1013.46
2017-04-23T00:42:47.991Z,1013.41
2017-04-23T00:43:57.913Z,1013.44
2017-04-23T00:45:08.158Z,1013.44
2017-04-23T00:46:17.453Z,1013.47
2017-04-23T00:47:27.688Z,1013.42
2017-04-23T00:48:37.630Z,1013.43
2017-04-23T00:49:47.864Z,1013.43
2017-04-23T00:50:58.106Z,1013.47
2017-04-23T00:52:08.340Z,1013.43
2017-04-23T00:53:18.268Z,1013.44
2017-04-23T00:54:28.510Z,1013.48
2017-04-23T00:55:38.476Z,1013.47
2017-04-23T00:56:48.711Z,1013.48
2017-04-23T00:57:58.635Z,1013.48
2017-04-23T00:59:08.877Z,1013.52
2017-04-23T01:00:18.800Z,1013.49
2017-04-23T01:01:28.412Z,1013.44
2017-04-23T01:02:38.337Z,1013.46
2017-04-23T01:03:48.572Z,1013.43
2017-04-23T01:04:58.805Z,1013.47
2017-04-23T01:06:08.421Z,1013.46
2017-04-23T01:07:18.343Z,1013.54
2017-04-23T01:08:28.583Z,1013.48
2017-04-23T01:09:38.818Z,1013.52
2017-04-23T01:10:49.049Z,1013.5
2017-04-23T01:11:59.286Z,1013.5
2017-04-23T01:13:09.526Z,1013.56
2017-04-23T01:14:19.765Z,1013.57
2017-04-23T01:15:29.691Z,1013.55
2017-04-23T01:16:39.612Z,1013.52
2017-04-23T01:17:49.545Z,1013.54
2017-04-23T01:18:59.785Z,1013.56
2017-04-23T01:20:10.025Z,1013.57
2017-04-23T01:21:19.979Z,1013.56
2017-04-23T01:22:30.222Z,1013.6
2017-04-23T01:23:40.461Z,1013.57
2017-04-23T01:24:50.397Z,1013.59
2017-04-23T01:26:00.671Z,1013.61
2017-04-23T01:27:10.593Z,1013.57
2017-04-23T01:28:20.523Z,1013.6
2017-04-23T01:29:30.768Z,1013.57
2017-04-23T01:30:41.003Z,1013.54
2017-04-23T01:31:51.243Z,1013.6
2017-04-23T01:33:01.483Z,1013.53
2017-04-23T01:34:11.720Z,1013.58
2017-04-23T01:35:21.016Z,1013.65
2017-04-23T01:36:30.934Z,1013.6
2017-04-23T01:37:41.175Z,1013.58
2017-04-23T01:38:51.096Z,1013.67
2017-04-23T01:40:01.328Z,1013.61
2017-04-23T01:41:11.574Z,1013.64
2017-04-23T01:42:21.813Z,1013.64
2017-04-23T01:43:31.761Z,1013.65
2017-04-23T01:44:41.998Z,1013.59
2017-04-23T01:45:51.919Z,1013.68
2017-04-23T01:47:01.528Z,1013.62
2017-04-23T01:48:11.761Z,1013.66
2017-04-23T01:49:21.677Z,1013.61
2017-04-23T01:50:31.916Z,1013.65
2017-04-23T01:51:42.149Z,1013.71
2017-04-23T01:52:52.073Z,1013.63
2017-04-23T01:54:02.000Z,1013.64
2017-04-23T01:55:11.925Z,1013.64
2017-04-23T01:56:22.161Z,1013.64
2017-04-23T01:57:32.406Z,1013.72
2017-04-23T01:58:42.644Z,1013.62
2017-04-23T01:59:52.877Z,1013.65
2017-04-23T02:01:03.120Z,1013.63
2017-04-23T02:02:13.048Z,1013.65
2017-04-23T02:03:22.348Z,1013.62
2017-04-23T02:04:32.587Z,1013.7
2017-04-23T02:05:42.508Z,1013.58
2017-04-23T02:06:52.744Z,1013.57
2017-04-23T02:08:02.986Z,1013.58
2017-04-23T02:09:13.467Z,1013.61
2017-04-23T02:10:23.393Z,1013.62
2017-04-23T02:11:33.318Z,1013.6
2017-04-23T02:12:43.253Z,1013.61
2017-04-23T02:13:53.496Z,1013.64
2017-04-23T02:15:03.426Z,1013.59
2017-04-23T02:16:12.718Z,1013.67
2017-04-23T02:17:22.956Z,1013.66
2017-04-23T02:18:33.193Z,1013.68
2017-04-23T02:19:43.439Z,1013.64
2017-04-23T02:20:53.673Z,1013.77
2017-04-23T02:22:02.971Z,1013.64
2017-04-23T02:23:13.207Z,1013.71
2017-04-23T02:24:22.822Z,1013.62
2017-04-23T02:25:32.746Z,1013.71
2017-04-23T02:26:42.675Z,1013.66
2017-04-23T02:27:52.288Z,1013.7
2017-04-23T02:29:02.525Z,1013.67
2017-04-23T02:30:12.450Z,1013.73
2017-04-23T02:31:22.686Z,1013.71
2017-04-23T02:32:32.922Z,1013.72
2017-04-23T02:33:42.848Z,1013.76
2017-04-23T02:34:53.087Z,1013.7
2017-04-23T02:36:03.331Z,1013.74
2017-04-23T02:37:13.272Z,1013.7
2017-04-23T02:38:23.519Z,1013.71
2017-04-23T02:39:33.753Z,1013.75
2017-04-23T02:40:43.989Z,1013.77
2017-04-23T02:41:53.598Z,1013.72
2017-04-23T02:43:03.520Z,1013.78
2017-04-23T02:44:13.132Z,1013.74
2017-04-23T02:45:23.064Z,1013.75
2017-04-23T02:46:32.674Z,1013.72
2017-04-23T02:47:42.599Z,1013.76
2017-04-23T02:48:52.532Z,1013.73
2017-04-23T02:50:02.804Z,1013.75
2017-04-23T02:51:13.044Z,1013.76
2017-04-23T02:52:22.968Z,1013.73
2017-04-23T02:53:33.116Z,1013.76
2017-04-23T02:54:42.423Z,1013.76
2017-04-23T02:55:51.719Z,1013.7
2017-04-23T02:57:01.953Z,1013.73
2017-04-23T02:58:12.193Z,1013.71
2017-04-23T02:59:22.434Z,1013.74
2017-04-23T03:00:32.355Z,1013.72
2017-04-23T03:01:41.970Z,1013.72
2017-04-23T03:02:51.906Z,1013.81
2017-04-23T03:04:02.148Z,1013.73
2017-04-23T03:05:11.758Z,1013.69
2017-04-23T03:06:21.683Z,1013.77
2017-04-23T03:07:31.296Z,1013.72
2017-04-23T03:08:41.560Z,1013.66
2017-04-23T03:09:51.803Z,1013.73
2017-04-23T03:11:01.735Z,1013.64
2017-04-23T03:12:11.671Z,1013.72
2017-04-23T03:13:21.590Z,1013.66
2017-04-23T03:14:31.837Z,1013.72
2017-04-23T03:15:42.072Z,1013.71
2017-04-23T03:16:51.995Z,1013.75
2017-04-23T03:18:02.229Z,1013.73
2017-04-23T03:19:11.838Z,1013.73
2017-04-23T03:20:22.095Z,1013.75
2017-04-23T03:21:32.333Z,1013.73
2017-04-23T03:22:41.945Z,1013.78
2017-04-23T03:23:52.180Z,1013.75
2017-04-23T03:25:02.109Z,1013.78
2017-04-23T03:26:11.720Z,1013.81
2017-04-23T03:27:21.962Z,1013.85
2017-04-23T03:28:31.576Z,1013.83
2017-04-23T03:29:41.502Z,1013.86
2017-04-23T03:30:51.737Z,1013.82
2017-04-23T03:32:01.971Z,1013.89
2017-04-23T03:33:11.578Z,1013.86
2017-04-23T03:34:21.830Z,1013.85
2017-04-23T03:35:32.067Z,1013.83
2017-04-23T03:36:42.303Z,1013.9
2017-04-23T03:37:52.230Z,1013.89
2017-04-23T03:39:02.168Z,1013.85
2017-04-23T03:40:12.403Z,1013.89
2017-04-23T03:41:22.012Z,1013.91
2017-04-23T03:42:32.275Z,1013.9
2017-04-23T03:43:41.917Z,1013.95
2017-04-23T03:44:51.846Z,1013.89
2017-04-23T03:46:01.772Z,1013.93
2017-04-23T03:47:11.386Z,1014.01
2017-04-23T03:48:20.995Z,1013.98
2017-04-23T03:49:30.616Z,1013.96
2017-04-23T03:50:41.074Z,1013.92
2017-04-23T03:51:50.997Z,1013.95
2017-04-23T03:53:00.606Z,1013.96
2017-04-23T03:54:10.846Z,1013.94
2017-04-23T03:55:21.081Z,1014
2017-04-23T03:56:31.321Z,1013.95
2017-04-23T03:57:41.563Z,1013.98
2017-04-23T03:58:51.803Z,1013.93
2017-04-23T04:00:01.729Z,1013.96
2017-04-23T04:01:11.662Z,1013.99
2017-04-23T04:02:21.899Z,1014
2017-04-23T04:03:31.824Z,1013.93
2017-04-23T04:04:41.784Z,1013.94
2017-04-23T04:05:52.024Z,1013.92
2017-04-23T04:07:02.257Z,1013.97
2017-04-23T04:08:12.497Z,1013.93
2017-04-23T04:09:22.431Z,1014
2017-04-23T04:10:32.379Z,1014.04
2017-04-23T04:11:42.314Z,1013.98
2017-04-23T04:12:52.545Z,1013.97
2017-04-23T04:14:02.480Z,1013.99
2017-04-23T04:15:12.406Z,1013.99
2017-04-23T04:16:22.647Z,1013.99
2017-04-23T04:17:32.896Z,1013.99
2017-04-23T04:18:43.139Z,1014
2017-04-23T04:19:53.387Z,1013.98
2017-04-23T04:21:02.999Z,1013.99
2017-04-23T04:22:12.603Z,1013.98
2017-04-23T04:23:22.525Z,1013.95
2017-04-23T04:24:32.765Z,1013.94
2017-04-23T04:25:42.694Z,1013.99
2017-04-23T04:26:52.626Z,1013.94
2017-04-23T04:28:02.551Z,1013.97
2017-04-23T04:29:12.161Z,1013.99
2017-04-23T04:30:22.411Z,1013.99
2017-04-23T04:31:32.338Z,1014.02
2017-04-23T04:32:42.593Z,1013.97
2017-04-23T04:33:52.859Z,1013.97
2017-04-23T04:35:02.783Z,1014.03
2017-04-23T04:36:12.393Z,1014.04
2017-04-23T04:37:22.636Z,1014.09
2017-04-23T04:38:32.555Z,1014.05
2017-04-23T04:39:42.800Z,1014.03
2017-04-23T04:40:53.066Z,1014.09
2017-04-23T04:42:03.299Z,1014.09
2017-04-23T04:43:13.220Z,1014.12
2017-04-23T04:44:22.846Z,1014.14
2017-04-23T04:45:32.767Z,1014.18
2017-04-23T04:46:43.007Z,1014.23
2017-04-23T04:47:53.243Z,1014.24
2017-04-23T04:49:03.174Z,1014.16
2017-04-23T04:50:12.167Z,1014.21
2017-04-23T04:51:22.406Z,1014.2
2017-04-23T04:52:32.325Z,1014.33
2017-04-23T04:53:42.568Z,1014.23
2017-04-23T04:54:52.814Z,1014.3
2017-04-23T04:56:03.062Z,1014.38
2017-04-23T04:57:13.303Z,1014.43
2017-04-23T04:58:23.226Z,1014.37
2017-04-23T04:59:33.164Z,1014.39
2017-04-23T05:00:42.773Z,1014.39
2017-04-23T05:01:53.013Z,1014.4
2017-04-23T05:03:02.946Z,1014.38
2017-04-23T05:04:12.873Z,1014.48
2017-04-23T05:05:23.114Z,1014.41
2017-04-23T05:06:33.039Z,1014.45
2017-04-23T05:07:42.960Z,1014.45
2017-04-23T05:08:52.910Z,1014.5
2017-04-23T05:10:03.149Z,1014.5
2017-04-23T05:11:12.763Z,1014.55
2017-04-23T05:12:22.999Z,1014.53
2017-04-23T05:13:32.929Z,1014.53
2017-04-23T05:14:43.209Z,1014.56
2017-04-23T05:15:53.132Z,1014.55
2017-04-23T05:17:03.370Z,1014.54
2017-04-23T05:18:13.294Z,1014.57
2017-04-23T05:19:23.539Z,1014.59
2017-04-23T05:20:33.781Z,1014.58
2017-04-23T05:21:44.015Z,1014.61
2017-04-23T05:22:54.251Z,1014.65
2017-04-23T05:24:04.175Z,1014.64
2017-04-23T05:25:14.112Z,1014.68
2017-04-23T05:26:24.035Z,1014.61
2017-04-23T05:27:34.278Z,1014.61
2017-04-23T05:28:44.213Z,1014.62
2017-04-23T05:29:54.456Z,1014.64
2017-04-23T05:31:04.705Z,1014.66
2017-04-23T05:32:14.647Z,1014.67
2017-04-23T05:33:24.877Z,1014.65
2017-04-23T05:34:35.122Z,1014.64
2017-04-23T05:35:45.361Z,1014.69
2017-04-23T05:36:55.599Z,1014.71
2017-04-23T05:38:05.838Z,1014.68
2017-04-23T05:39:15.446Z,1014.69
2017-04-23T05:40:25.688Z,1014.74
2017-04-23T05:41:35.611Z,1014.71
2017-04-23T05:42:45.549Z,1014.7
2017-04-23T05:43:55.793Z,1014.69
2017-04-23T05:45:06.041Z,1014.68
2017-04-23T05:46:15.972Z,1014.69
2017-04-23T05:47:25.578Z,1014.72
2017-04-23T05:48:35.503Z,1014.75
2017-04-23T05:49:45.757Z,1014.72
2017-04-23T05:50:56.009Z,1014.75
2017-04-23T05:52:06.253Z,1014.71
2017-04-23T05:53:16.180Z,1014.72
2017-04-23T05:54:26.420Z,1014.76
2017-04-23T05:55:36.664Z,1014.79
2017-04-23T05:56:45.959Z,1014.7
2017-04-23T05:57:55.891Z,1014.74
2017-04-23T05:59:05.815Z,1014.72
2017-04-23T06:00:16.049Z,1014.75
2017-04-23T06:01:26.287Z,1014.71
2017-04-23T06:02:36.530Z,1014.72
2017-04-23T06:03:46.773Z,1014.75
2017-04-23T06:04:56.714Z,1014.68
2017-04-23T06:06:06.954Z,1014.72
2017-04-23T06:07:17.193Z,1014.71
2017-04-23T06:08:27.433Z,1014.72
2017-04-23T06:09:37.359Z,1014.71
2017-04-23T06:10:47.597Z,1014.73
2017-04-23T06:11:57.844Z,1014.74
2017-04-23T06:13:07.768Z,1014.72
2017-04-23T06:14:17.396Z,1014.74
2017-04-23T06:15:27.011Z,1014.78
2017-04-23T06:16:37.252Z,1014.65
2017-04-23T06:17:47.493Z,1014.77
2017-04-23T06:18:57.751Z,1014.79
2017-04-23T06:20:07.987Z,1014.81
2017-04-23T06:21:17.596Z,1014.82
2017-04-23T06:22:27.832Z,1014.84
2017-04-23T06:23:38.075Z,1014.87
2017-04-23T06:24:48.323Z,1014.79
2017-04-23T06:25:58.562Z,1014.83
2017-04-23T06:27:08.483Z,1014.85
2017-04-23T06:28:18.730Z,1014.8
2017-04-23T06:29:28.345Z,1014.82
2017-04-23T06:30:38.587Z,1014.9
2017-04-23T06:31:48.511Z,1014.84
2017-04-23T06:32:58.749Z,1014.88
2017-04-23T06:34:08.684Z,1014.85
2017-04-23T06:35:18.615Z,1014.89
2017-04-23T06:36:28.538Z,1014.84
2017-04-23T06:37:38.772Z,1014.9
2017-04-23T06:38:48.382Z,1014.91
2017-04-23T06:39:58.626Z,1014.92
2017-04-23T06:41:08.544Z,1014.95
2017-04-23T06:42:18.782Z,1014.95
2017-04-23T06:43:29.022Z,1014.93
2017-04-23T06:44:39.263Z,1014.95
2017-04-23T06:45:49.496Z,1014.97
2017-04-23T06:46:59.428Z,1014.98
2017-04-23T06:48:09.361Z,1014.88
2017-04-23T06:49:19.609Z,1014.99
2017-04-23T06:50:29.534Z,1015.04
2017-04-23T06:51:39.455Z,1014.99
2017-04-23T06:52:49.685Z,1014.94
2017-04-23T06:53:59.620Z,1014.95
2017-04-23T06:55:09.870Z,1015.04
2017-04-23T06:56:19.789Z,1014.99
2017-04-23T06:57:29.737Z,1015.01
2017-04-23T06:58:39.984Z,1015.01
2017-04-23T06:59:50.223Z,1015
2017-04-23T07:01:00.468Z,1015.05
2017-04-23T07:02:10.391Z,1015.06
2017-04-23T07:03:20.635Z,1015.11
2017-04-23T07:04:30.879Z,1015.13
2017-04-23T07:05:40.808Z,1015.12
2017-04-23T07:06:50.733Z,1015.16
2017-04-23T07:08:00.973Z,1015.23
2017-04-23T07:09:11.206Z,1015.13
2017-04-23T07:10:21.130Z,1015.15
2017-04-23T07:11:31.368Z,1015.1
2017-04-23T07:12:41.299Z,1015.13
2017-04-23T07:13:51.541Z,1015.11
2017-04-23T07:15:01.154Z,1015.12
2017-04-23T07:16:11.084Z,1015.15
2017-04-23T07:17:21.319Z,1015.1
2017-04-23T07:18:31.557Z,1015.13
2017-04-23T07:19:41.796Z,1015.13
2017-04-23T07:20:52.032Z,1015.11
2017-04-23T07:22:01.984Z,1015.17
2017-04-23T07:23:11.938Z,1015.15
2017-04-23T07:24:22.176Z,1015.22
2017-04-23T07:25:32.103Z,1015.15
2017-04-23T07:26:42.358Z,1015.2
2017-04-23T07:27:52.596Z,1015.2
2017-04-23T07:29:01.894Z,1015.19
2017-04-23T07:30:11.194Z,1015.19
2017-04-23T07:31:21.129Z,1015.18
2017-04-23T07:32:31.371Z,1015.23
2017-04-23T07:33:41.615Z,1015.25
2017-04-23T07:34:51.558Z,1015.13
2017-04-23T07:36:01.802Z,1015.22
2017-04-23T07:37:12.042Z,1015.23
2017-04-23T07:38:22.278Z,1015.2
2017-04-23T07:39:31.908Z,1015.21
2017-04-23T07:40:41.837Z,1015.22
2017-04-23T07:41:52.074Z,1015.17
2017-04-23T07:43:01.685Z,1015.27
2017-04-23T07:44:11.611Z,1015.26
2017-04-23T07:45:21.532Z,1015.25
2017-04-23T07:46:31.474Z,1015.33
2017-04-23T07:47:41.399Z,1015.27
2017-04-23T07:48:51.329Z,1015.25
2017-04-23T07:50:01.262Z,1015.24
2017-04-23T07:51:11.496Z,1015.33
2017-04-23T07:52:21.105Z,1015.28
2017-04-23T07:53:31.030Z,1015.24
2017-04-23T07:54:41.276Z,1015.32
2017-04-23T07:55:51.557Z,1015.26
2017-04-23T07:57:01.199Z,1015.31
2017-04-23T07:58:11.127Z,1015.37
2017-04-23T07:59:21.371Z,1015.33
2017-04-23T08:00:31.009Z,1015.27
2017-04-23T08:01:40.937Z,1015.29
2017-04-23T08:02:50.882Z,1015.32
2017-04-23T08:04:01.144Z,1015.35
2017-04-23T08:05:10.769Z,1015.41
2017-04-23T08:06:21.009Z,1015.39
2017-04-23T08:07:31.255Z,1015.44
2017-04-23T08:08:41.182Z,1015.42
2017-04-23T08:09:51.115Z,1015.38
2017-04-23T08:11:01.356Z,1015.4
2017-04-23T08:12:11.589Z,1015.34
2017-04-23T08:13:21.201Z,1015.39
2017-04-23T08:14:31.122Z,1015.32
2017-04-23T08:15:41.045Z,1015.39
2017-04-23T08:16:50.974Z,1015.4
2017-04-23T08:18:00.584Z,1015.34
2017-04-23T08:19:10.823Z,1015.38
2017-04-23T08:20:20.783Z,1015.34
2017-04-23T08:21:31.033Z,1015.41
2017-04-23T08:22:40.960Z,1015.49
2017-04-23T08:23:50.882Z,1015.36
2017-04-23T08:25:00.195Z,1015.39
2017-04-23T08:26:10.440Z,1015.42
2017-04-23T08:27:20.684Z,1015.39
2017-04-23T08:28:30.294Z,1015.41
2017-04-23T08:29:40.533Z,1015.36
2017-04-23T08:30:50.146Z,1015.36
2017-04-23T08:32:00.390Z,1015.43
2017-04-23T08:33:10.626Z,1015.43
2017-04-23T08:34:20.552Z,1015.41
2017-04-23T08:35:30.793Z,1015.4
2017-04-23T08:36:40.401Z,1015.37
2017-04-23T08:37:50.639Z,1015.3
2017-04-23T08:39:00.248Z,1015.28
2017-04-23T08:40:10.493Z,1015.33
2017-04-23T08:41:20.418Z,1015.25
2017-04-23T08:42:30.657Z,1015.23
2017-04-23T08:43:40.898Z,1015.27
2017-04-23T08:44:50.832Z,1015.25
2017-04-23T08:46:00.450Z,1015.27
2017-04-23T08:47:10.390Z,1015.27
2017-04-23T08:48:20.325Z,1015.28
2017-04-23T08:49:30.573Z,1015.29
2017-04-23T08:50:40.816Z,1015.26
2017-04-23T08:51:51.052Z,1015.28
2017-04-23T08:53:01.292Z,1015.23
2017-04-23T08:54:11.539Z,1015.18
2017-04-23T08:55:21.788Z,1015.17
2017-04-23T08:56:31.709Z,1015.13
2017-04-23T08:57:41.629Z,1015.16
2017-04-23T08:58:51.562Z,1015.2
2017-04-23T09:00:01.833Z,1015.15
2017-04-23T09:01:12.067Z,1015.12
2017-04-23T09:02:21.998Z,1015.14
2017-04-23T09:03:32.237Z,1015.13
2017-04-23T09:04:42.479Z,1015.18
2017-04-23T09:05:52.719Z,1015.19
2017-04-23T09:07:02.958Z,1015.16
2017-04-23T09:08:13.195Z,1015.17
2017-04-23T09:09:22.811Z,1015.28
2017-04-23T09:10:33.048Z,1015.2
2017-04-23T09:11:42.666Z,1015.16
2017-04-23T09:12:52.913Z,1015.15
2017-04-23T09:14:03.152Z,1015.19
2017-04-23T09:15:13.076Z,1015.2
2017-04-23T09:16:23.003Z,1015.1
2017-04-23T09:17:32.932Z,1015.12
2017-04-23T09:18:43.174Z,1015.13
2017-04-23T09:19:53.410Z,1015.12
2017-04-23T09:21:02.714Z,1015.17
2017-04-23T09:22:12.954Z,1015.12
2017-04-23T09:23:23.209Z,1015.11
2017-04-23T09:24:33.446Z,1015.11
2017-04-23T09:25:43.718Z,1015.08
2017-04-23T09:26:53.660Z,1015.1
2017-04-23T09:28:03.583Z,1015.04
2017-04-23T09:29:13.829Z,1015.04
2017-04-23T09:30:24.077Z,1015.06
2017-04-23T09:31:33.999Z,1015.02
2017-04-23T09:32:43.930Z,1015.03
2017-04-23T09:33:54.170Z,1015
2017-04-23T09:35:04.094Z,1015.03
2017-04-23T09:36:13.699Z,1015
2017-04-23T09:37:23.940Z,1015.04
2017-04-23T09:38:34.177Z,1015.09
2017-04-23T09:39:44.443Z,1015.04
2017-04-23T09:40:54.365Z,1015.06
2017-04-23T09:42:04.290Z,1015.17
2017-04-23T09:43:14.217Z,1015.39
2017-04-23T09:44:24.149Z,1015.34
2017-04-23T09:45:33.768Z,1015.48
2017-04-23T09:46:43.387Z,1015.46
2017-04-23T09:47:53.627Z,1015.45
2017-04-23T09:49:03.233Z,1015.47
2017-04-23T09:50:13.154Z,1015.51
2017-04-23T09:51:23.085Z,1015.44
2017-04-23T09:52:32.699Z,1015.45
2017-04-23T09:53:42.939Z,1015.42
2017-04-23T09:54:52.876Z,1015.42
2017-04-23T09:56:03.111Z,1015.45
2017-04-23T09:57:13.033Z,1015.45
2017-04-23T09:58:22.960Z,1015.39
2017-04-23T09:59:33.210Z,1015.38
2017-04-23T10:00:43.144Z,1015.34
2017-04-23T10:01:53.387Z,1015.37
2017-04-23T10:03:03.625Z,1015.33
2017-04-23T10:04:13.860Z,1015.3
2017-04-23T10:05:24.117Z,1015.24
2017-04-23T10:06:34.355Z,1015.23
2017-04-23T10:07:43.968Z,1015.24
2017-04-23T10:08:54.208Z,1015.21
2017-04-23T10:10:04.454Z,1015.17
2017-04-23T10:11:14.374Z,1015.19
2017-04-23T10:12:24.615Z,1015.11
2017-04-23T10:13:35.380Z,1015.13
2017-04-23T10:14:45.308Z,1015.1
2017-04-23T10:15:55.541Z,1015.08
2017-04-23T10:17:05.161Z,1015.15
2017-04-23T10:18:14.768Z,1015.06
2017-04-23T10:19:25.036Z,1015.05
2017-04-23T10:20:35.277Z,1015.03
2017-04-23T10:21:45.510Z,1015.01
2017-04-23T10:22:55.748Z,1015.04
2017-04-23T10:24:05.680Z,1015.13
2017-04-23T10:25:15.602Z,1015.13
2017-04-23T10:26:25.835Z,1015.24
2017-04-23T10:27:36.074Z,1015.14
2017-04-23T10:28:46.002Z,1015.09
2017-04-23T10:29:55.933Z,1015.13
2017-04-23T10:31:06.175Z,1015.05
2017-04-23T10:32:16.104Z,1014.97
2017-04-23T10:33:26.346Z,1015.02
2017-04-23T10:34:36.585Z,1014.96
2017-04-23T10:35:46.199Z,1014.94
2017-04-23T10:36:55.809Z,1014.94
2017-04-23T10:38:06.051Z,1014.93
2017-04-23T10:39:16.017Z,1014.94
2017-04-23T10:40:26.258Z,1014.89
2017-04-23T10:41:36.498Z,1014.82
2017-04-23T10:42:46.432Z,1014.8
2017-04-23T10:43:56.361Z,1014.82
2017-04-23T10:45:06.612Z,1014.74
2017-04-23T10:46:16.848Z,1014.72
2017-04-23T10:47:27.088Z,1014.76
2017-04-23T10:48:37.025Z,1014.74
2017-04-23T10:49:47.267Z,1014.75
2017-04-23T10:50:57.189Z,1014.75
2017-04-23T10:52:07.432Z,1014.8
2017-04-23T10:53:17.058Z,1014.72
2017-04-23T10:54:27.296Z,1014.72
2017-04-23T10:55:37.222Z,1014.7
2017-04-23T10:56:46.838Z,1014.72
2017-04-23T10:57:56.770Z,1014.69
2017-04-23T10:59:06.747Z,1014.68
2017-04-23T11:00:16.358Z,1014.68
2017-04-23T11:01:26.284Z,1014.64
2017-04-23T11:02:36.521Z,1014.67
2017-04-23T11:03:46.765Z,1014.65
2017-04-23T11:04:57.009Z,1014.66
2017-04-23T11:06:06.944Z,1014.66
2017-04-23T11:07:16.561Z,1014.58
2017-04-23T11:08:26.811Z,1014.66
2017-04-23T11:09:37.058Z,1014.62
2017-04-23T11:10:47.007Z,1014.54
2017-04-23T11:11:57.242Z,1014.56
2017-04-23T11:13:07.486Z,1014.58
2017-04-23T11:14:17.417Z,1014.51
2017-04-23T11:15:27.373Z,1014.52
2017-04-23T11:16:37.610Z,1014.54
2017-04-23T11:17:47.846Z,1014.51
2017-04-23T11:18:57.780Z,1014.51
2017-04-23T11:20:08.021Z,1014.48
2017-04-23T11:21:18.259Z,1014.65
2017-04-23T11:22:28.187Z,1014.62
2017-04-23T11:23:38.438Z,1014.82
2017-04-23T11:24:48.394Z,1014.85
2017-04-23T11:25:58.343Z,1014.9
2017-04-23T11:27:08.593Z,1014.92
2017-04-23T11:28:18.527Z,1015.04
2017-04-23T11:29:28.764Z,1015.01
2017-04-23T11:30:38.687Z,1014.99
2017-04-23T11:31:48.931Z,1015.01
2017-04-23T11:32:59.166Z,1015.03
2017-04-23T11:34:09.412Z,1015.05
2017-04-23T11:35:19.026Z,1014.97
2017-04-23T11:36:29.271Z,1015.02
2017-04-23T11:37:39.206Z,1014.99
2017-04-23T11:38:49.437Z,1015
2017-04-23T11:39:59.669Z,1014.97
2017-04-23T11:41:09.916Z,1014.94
2017-04-23T11:42:20.159Z,1014.94
2017-04-23T11:43:29.462Z,1014.95
2017-04-23T11:44:39.386Z,1014.94
2017-04-23T11:45:49.633Z,1014.89
2017-04-23T11:46:59.878Z,1014.92
2017-04-23T11:48:10.129Z,1014.88
2017-04-23T11:49:20.081Z,1014.87
2017-04-23T11:50:30.319Z,1014.87
2017-04-23T11:51:39.929Z,1014.91
2017-04-23T11:52:50.178Z,1014.92
2017-04-23T11:53:59.485Z,1014.89
2017-04-23T11:55:09.726Z,1014.83
2017-04-23T11:56:19.976Z,1014.85
2017-04-23T11:57:29.934Z,1014.88
2017-04-23T11:58:40.185Z,1014.84
2017-04-23T11:59:50.115Z,1014.75
2017-04-23T12:01:00.037Z,1014.76
2017-04-23T12:02:09.649Z,1014.76
2017-04-23T12:03:19.568Z,1014.81
2017-04-23T12:04:29.865Z,1014.83
2017-04-23T12:05:40.125Z,1014.81
2017-04-23T12:06:50.367Z,1014.75
2017-04-23T12:08:00.604Z,1014.77
2017-04-23T12:09:10.853Z,1014.7
2017-04-23T12:10:21.091Z,1014.73
2017-04-23T12:11:31.020Z,1014.73
2017-04-23T12:12:40.946Z,1014.66
2017-04-23T12:13:51.258Z,1014.68
2017-04-23T12:15:01.179Z,1014.65
2017-04-23T12:16:11.418Z,1014.66
2017-04-23T12:17:21.663Z,1014.7
2017-04-23T12:18:31.905Z,1014.67
2017-04-23T12:19:41.837Z,1014.73
2017-04-23T12:20:51.463Z,1014.81
2017-04-23T12:22:01.076Z,1014.72
2017-04-23T12:23:11.003Z,1014.71
2017-04-23T12:24:20.300Z,1014.68
2017-04-23T12:25:30.546Z,1014.73
2017-04-23T12:26:40.480Z,1014.75
2017-04-23T12:27:50.403Z,1014.68
2017-04-23T12:29:00.340Z,1014.71
2017-04-23T12:30:10.374Z,1014.79
2017-04-23T12:31:20.631Z,1014.74
2017-04-23T12:32:30.878Z,1014.68
2017-04-23T12:33:41.117Z,1014.68
2017-04-23T12:34:51.038Z,1014.6
2017-04-23T12:36:01.333Z,1014.69
2017-04-23T12:37:11.025Z,1014.64
2017-04-23T12:38:21.002Z,1014.69
2017-04-23T12:39:30.998Z,1014.66
2017-04-23T12:40:41.010Z,1014.68
2017-04-23T12:41:51.346Z,1014.63
2017-04-23T12:43:01.382Z,1014.6
2017-04-23T12:44:11.384Z,1014.58
2017-04-23T12:45:21.685Z,1014.51
2017-04-23T12:46:32.014Z,1014.61
2017-04-23T12:47:42.007Z,1014.59
2017-04-23T12:48:52.402Z,1014.59
2017-04-23T12:50:02.808Z,1014.56
2017-04-23T12:51:12.832Z,1014.57
2017-04-23T12:52:23.003Z,1014.52
2017-04-23T12:53:33.322Z,1014.54
2017-04-23T12:54:43.433Z,1014.65
2017-04-23T12:55:53.501Z,1014.57
2017-04-23T12:57:03.876Z,1014.49
2017-04-23T12:58:13.890Z,1014.48
2017-04-23T12:59:23.985Z,1014.46
2017-04-23T13:00:34.300Z,1014.41
2017-04-23T13:01:44.623Z,1014.46
2017-04-23T13:02:54.760Z,1014.46
2017-04-23T13:04:05.072Z,1014.48
2017-04-23T13:05:14.707Z,1014.58
2017-04-23T13:06:24.439Z,1014.45
2017-04-23T13:07:34.477Z,1014.51
2017-04-23T13:08:44.897Z,1014.46
2017-04-23T13:09:55.296Z,1014.4
2017-04-23T13:11:04.642Z,1014.48
2017-04-23T13:12:14.591Z,1014.51
2017-04-23T13:13:24.567Z,1014.46
2017-04-23T13:14:34.540Z,1014.4
2017-04-23T13:15:44.839Z,1014.35
2017-04-23T13:16:55.172Z,1014.36
2017-04-23T13:18:05.521Z,1014.36
2017-04-23T13:19:15.840Z,1014.44
2017-04-23T13:20:26.131Z,1014.35
2017-04-23T13:21:36.419Z,1014.42
2017-04-23T13:22:46.444Z,1014.45
2017-04-23T13:23:56.765Z,1014.35
2017-04-23T13:25:06.715Z,1014.31
2017-04-23T13:26:17.011Z,1014.38
2017-04-23T13:27:27.381Z,1014.34
2017-04-23T13:28:37.467Z,1014.28
2017-04-23T13:29:47.874Z,1014.29
2017-04-23T13:30:58.177Z,1014.28
2017-04-23T13:32:08.513Z,1014.25
2017-04-23T13:33:18.548Z,1014.26
2017-04-23T13:34:28.270Z,1014.09
2017-04-23T13:35:38.598Z,1014.11
2017-04-23T13:36:48.987Z,1013.99
2017-04-23T13:37:59.326Z,1014.1
2017-04-23T13:39:09.620Z,1014.09
2017-04-23T13:40:19.896Z,1014.04
2017-04-23T13:41:30.196Z,1014.07
2017-04-23T13:42:40.288Z,1014.14
2017-04-23T13:43:50.578Z,1014.08
2017-04-23T13:45:00.900Z,1014.19
2017-04-23T13:46:10.886Z,1014.16
2017-04-23T13:47:21.200Z,1014.17
2017-04-23T13:48:31.162Z,1014.18
2017-04-23T13:49:41.499Z,1014.12
2017-04-23T13:50:51.252Z,1014.14
2017-04-23T13:52:01.159Z,1014.09
2017-04-23T13:53:11.528Z,1014.15
2017-04-23T13:54:21.837Z,1014.16
2017-04-23T13:55:31.863Z,1014.24
2017-04-23T13:56:42.187Z,1014.52
2017-04-23T13:57:52.597Z,1014.67
2017-04-23T13:59:02.581Z,1014.81
2017-04-23T14:00:12.980Z,1014.79
2017-04-23T14:01:23.284Z,1014.82
2017-04-23T14:02:33.727Z,1014.85
2017-04-23T14:03:43.855Z,1014.87
2017-04-23T14:04:54.371Z,1014.78
2017-04-23T14:06:04.571Z,1014.79
2017-04-23T14:07:14.258Z,1014.79
2017-04-23T14:08:24.404Z,1014.78
2017-04-23T14:09:34.400Z,1014.78
2017-04-23T14:10:45.889Z,1014.77